createdAt,value
2018-07-25T00:00:36.926Z,7.87
2018-07-25T00:03:07.597Z,8.30
2018-07-25T00:05:38.078Z,7.40
2018-07-25T00:08:09.051Z,8.20
2018-07-25T00:10:44.818Z,8.27
2018-07-25T00:13:15.370Z,8.00
2018-07-25T00:15:45.759Z,7.90
2018-07-25T00:18:16.285Z,7.50
2018-07-25T00:20:46.749Z,8.40
2018-07-25T00:23:17.706Z,7.30
2018-07-25T00:25:48.242Z,7.33
2018-07-25T00:28:18.710Z,8.70
2018-07-25T00:30:49.561Z,7.50
2018-07-25T00:33:19.990Z,7.80
2018-07-25T00:35:50.524Z,7.90
2018-07-25T00:38:20.924Z,7.40
2018-07-25T00:40:51.424Z,8.00
2018-07-25T00:43:22.443Z,7.90
2018-07-25T00:45:52.883Z,7.97
2018-07-25T00:48:23.362Z,7.97
2018-07-25T00:50:54.206Z,7.50
2018-07-25T00:53:24.668Z,8.10
2018-07-25T00:55:55.185Z,8.03
2018-07-25T00:58:26.294Z,7.87
2018-07-25T01:00:57.158Z,7.40
2018-07-25T01:03:27.128Z,8.20
2018-07-25T01:05:57.313Z,7.33
2018-07-25T01:08:28.281Z,8.10
2018-07-25T01:10:58.789Z,8.00
2018-07-25T01:13:29.455Z,8.50
2018-07-25T01:15:59.596Z,8.77
2018-07-25T01:18:33.957Z,8.77
2018-07-25T01:21:04.321Z,7.53
2018-07-25T01:23:35.429Z,7.37
2018-07-25T01:26:05.830Z,7.13
2018-07-25T01:28:36.378Z,8.13
2018-07-25T01:31:06.753Z,7.73
2018-07-25T01:33:37.097Z,7.90
2018-07-25T01:36:08.070Z,7.53
2018-07-25T01:38:38.577Z,7.90
2018-07-25T01:41:08.901Z,8.70
2018-07-25T01:43:39.611Z,8.20
2018-07-25T01:46:09.970Z,9.20
2018-07-25T01:48:39.843Z,8.33
2018-07-25T01:51:10.080Z,7.80
2018-07-25T01:53:40.948Z,8.47
2018-07-25T01:56:11.245Z,8.30
2018-07-25T01:58:41.726Z,8.50
2018-07-25T02:01:12.280Z,7.90
2018-07-25T02:03:42.826Z,8.33
2018-07-25T02:06:13.188Z,7.93
2018-07-25T02:08:43.901Z,9.17
2018-07-25T02:11:14.615Z,8.80
2018-07-25T02:13:45.166Z,8.87
2018-07-25T02:16:15.741Z,8.10
2018-07-25T02:18:46.055Z,9.10
2018-07-25T02:21:16.401Z,9.60
2018-07-25T02:23:46.691Z,9.30
2018-07-25T02:26:17.518Z,8.97
2018-07-25T02:28:48.073Z,8.80
2018-07-25T02:31:18.168Z,9.70
2018-07-25T02:33:54.543Z,9.20
2018-07-25T02:36:25.293Z,10.20
2018-07-25T02:38:55.709Z,9.47
2018-07-25T02:41:26.109Z,8.70
2018-07-25T02:43:57.057Z,9.80
2018-07-25T02:46:27.525Z,10.83
2018-07-25T02:48:58.384Z,9.43
2018-07-25T02:51:28.900Z,10.20
2018-07-25T02:53:59.466Z,10.17
2018-07-25T02:56:29.712Z,9.00
2018-07-25T02:59:00.553Z,9.93
2018-07-25T03:01:30.808Z,10.30
2018-07-25T03:04:01.594Z,9.50
2018-07-25T03:06:31.868Z,9.90
2018-07-25T03:09:03.432Z,9.07
2018-07-25T03:11:33.976Z,9.73
2018-07-25T03:14:04.776Z,10.40
2018-07-25T03:16:35.153Z,11.37
2018-07-25T03:19:05.616Z,11.03
2018-07-25T03:21:36.104Z,10.93
2018-07-25T03:24:06.872Z,11.17
2018-07-25T03:26:37.227Z,10.93
2018-07-25T03:29:07.729Z,10.77
2018-07-25T03:31:38.264Z,9.37
2018-07-25T03:34:08.585Z,9.47
2018-07-25T03:36:38.981Z,9.97
2018-07-25T03:39:09.906Z,12.07
2018-07-25T03:41:40.436Z,12.80
2018-07-25T03:44:10.808Z,11.53
2018-07-25T03:46:41.112Z,9.00
2018-07-25T03:49:12.018Z,8.50
2018-07-25T03:51:42.342Z,11.40
2018-07-25T03:54:12.645Z,9.50
2018-07-25T03:56:42.696Z,10.03
2018-07-25T03:59:13.206Z,11.43
2018-07-25T04:01:43.633Z,9.50
2018-07-25T04:04:13.968Z,10.17
2018-07-25T04:06:44.493Z,11.37
2018-07-25T04:09:14.989Z,11.10
2018-07-25T04:11:45.232Z,9.63
2018-07-25T04:14:16.103Z,8.13
2018-07-25T04:16:46.550Z,10.23
2018-07-25T04:19:16.865Z,9.63
2018-07-25T04:21:47.129Z,11.60
2018-07-25T04:24:17.936Z,11.10
2018-07-25T04:26:48.221Z,9.10
2018-07-25T04:29:19.141Z,9.40
2018-07-25T04:31:49.569Z,8.40
2018-07-25T04:34:20.107Z,10.20
2018-07-25T04:36:50.638Z,10.53
2018-07-25T04:39:21.002Z,11.17
2018-07-25T04:41:51.402Z,8.90
2018-07-25T04:44:21.524Z,8.07
2018-07-25T04:46:51.873Z,8.50
2018-07-25T04:49:22.299Z,9.23
2018-07-25T04:51:53.361Z,9.07
2018-07-25T04:54:23.814Z,11.17
2018-07-25T04:56:54.237Z,8.83
2018-07-25T04:59:24.630Z,9.67
2018-07-25T05:01:55.467Z,10.30
2018-07-25T05:04:26.077Z,10.63
2018-07-25T05:06:56.409Z,9.83
2018-07-25T05:09:27.460Z,11.67
2018-07-25T05:11:58.410Z,10.90
2018-07-25T05:14:28.834Z,9.57
2018-07-25T05:16:59.286Z,11.27
2018-07-25T05:19:29.821Z,9.27
2018-07-25T05:22:00.241Z,11.30
2018-07-25T05:24:30.774Z,12.00
2018-07-25T05:27:01.425Z,10.43
2018-07-25T05:29:31.765Z,11.10
2018-07-25T05:32:02.086Z,11.67
2018-07-25T05:34:32.496Z,12.13
2018-07-25T05:37:03.227Z,11.60
2018-07-25T05:39:33.765Z,13.63
2018-07-25T05:42:05.101Z,13.40
2018-07-25T05:44:35.669Z,13.87
2018-07-25T05:47:05.854Z,12.93
2018-07-25T05:49:36.439Z,13.77
2018-07-25T05:52:07.503Z,13.00
2018-07-25T05:54:37.773Z,13.77
2018-07-25T05:57:08.265Z,13.97
2018-07-25T05:59:38.698Z,15.70
2018-07-25T06:02:09.854Z,15.60
2018-07-25T06:04:40.252Z,15.50
2018-07-25T06:07:10.735Z,15.50
2018-07-25T06:09:41.230Z,16.73
2018-07-25T06:12:13.082Z,18.33
2018-07-25T06:14:43.575Z,16.93
2018-07-25T06:17:14.241Z,16.50
2018-07-25T06:19:44.977Z,15.50
2018-07-25T06:22:15.649Z,14.40
2018-07-25T06:24:46.873Z,15.23
2018-07-25T06:27:18.685Z,13.57
2018-07-25T06:29:49.126Z,13.67
2018-07-25T06:32:19.709Z,13.97
2018-07-25T06:34:50.273Z,12.60
2018-07-25T06:37:20.865Z,13.60
2018-07-25T06:39:51.345Z,12.50
2018-07-25T06:42:21.460Z,12.87
2018-07-25T06:44:52.169Z,13.00
2018-07-25T06:47:22.649Z,12.90
2018-07-25T06:49:53.164Z,14.40
2018-07-25T06:52:23.747Z,12.93
2018-07-25T06:54:54.551Z,11.93
2018-07-25T06:57:24.991Z,13.63
2018-07-25T06:59:55.561Z,11.43
2018-07-25T07:02:26.429Z,10.97
2018-07-25T07:04:57.059Z,11.33
2018-07-25T07:07:27.718Z,10.53
2018-07-25T07:09:58.121Z,11.27
2018-07-25T07:12:27.873Z,10.60
2018-07-25T07:14:58.136Z,9.20
2018-07-25T07:17:28.622Z,10.60
2018-07-25T07:19:59.517Z,11.67
2018-07-25T07:22:30.053Z,10.07
2018-07-25T07:25:00.350Z,9.53
2018-07-25T07:27:30.752Z,9.57
2018-07-25T07:30:01.177Z,8.80
2018-07-25T07:32:31.894Z,10.23
2018-07-25T07:35:02.552Z,8.73
2018-07-25T07:37:33.256Z,9.20
2018-07-25T07:40:03.662Z,9.70
2018-07-25T07:42:34.277Z,10.30
2018-07-25T07:45:04.978Z,8.93
2018-07-25T07:47:35.523Z,8.83
2018-07-25T07:50:06.785Z,9.10
2018-07-25T07:52:38.779Z,8.60
2018-07-25T07:55:09.680Z,8.23
2018-07-25T07:57:40.173Z,7.97
2018-07-25T08:00:10.621Z,7.47
2018-07-25T08:02:41.389Z,7.50
2018-07-25T08:05:11.807Z,7.57
2018-07-25T08:07:42.398Z,6.60
2018-07-25T08:10:12.909Z,7.70
2018-07-25T08:12:44.661Z,7.03
2018-07-25T08:15:15.068Z,7.63
2018-07-25T08:17:46.685Z,8.20
2018-07-25T08:20:17.861Z,8.57
2018-07-25T08:22:48.299Z,8.30
2018-07-25T08:25:18.851Z,7.13
2018-07-25T08:27:49.368Z,7.03
2018-07-25T08:30:20.018Z,6.90
2018-07-25T08:32:50.528Z,6.70
2018-07-25T08:35:21.028Z,6.20
2018-07-25T08:37:51.547Z,5.87
2018-07-25T08:40:22.412Z,6.40
2018-07-25T08:42:52.862Z,6.00
2018-07-25T08:45:23.199Z,6.20
2018-07-25T08:47:53.771Z,5.97
2018-07-25T08:50:24.021Z,6.87
2018-07-25T08:52:54.395Z,6.00
2018-07-25T08:55:24.453Z,6.50
2018-07-25T08:57:55.039Z,7.23
2018-07-25T09:00:25.414Z,7.27
2018-07-25T09:02:55.693Z,6.43
2018-07-25T09:05:26.115Z,6.20
2018-07-25T09:08:00.136Z,7.10
2018-07-25T09:10:30.333Z,6.60
2018-07-25T09:13:00.964Z,6.17
2018-07-25T09:15:31.525Z,7.17
2018-07-25T09:18:02.205Z,7.60
2018-07-25T09:20:32.901Z,6.57
2018-07-25T09:23:03.765Z,6.17
2018-07-25T09:25:35.743Z,6.80
2018-07-25T09:28:06.092Z,5.67
2018-07-25T09:30:36.220Z,5.60
2018-07-25T09:33:06.524Z,6.13
2018-07-25T09:35:36.761Z,5.97
2018-07-25T09:38:07.323Z,5.70
2018-07-25T09:40:37.802Z,5.60
2018-07-25T09:43:08.439Z,5.60
2018-07-25T09:45:38.952Z,5.37
2018-07-25T09:48:09.432Z,5.40
2018-07-25T09:50:39.948Z,5.47
2018-07-25T09:53:10.515Z,5.90
2018-07-25T09:55:40.859Z,6.43
2018-07-25T09:58:11.322Z,6.03
2018-07-25T10:00:49.321Z,6.50
2018-07-25T10:03:20.162Z,6.20
2018-07-25T10:05:50.684Z,6.80
2018-07-25T10:08:21.165Z,6.40
2018-07-25T10:10:51.717Z,5.87
2018-07-25T10:13:22.210Z,5.90
2018-07-25T10:15:52.876Z,6.30
2018-07-25T10:18:22.989Z,6.30
2018-07-25T10:20:53.108Z,6.30
2018-07-25T10:23:23.574Z,6.13
2018-07-25T10:25:54.146Z,6.30
2018-07-25T10:28:25.512Z,5.73
2018-07-25T10:30:56.174Z,5.70
2018-07-25T10:33:26.676Z,5.50
2018-07-25T10:35:56.997Z,5.73
2018-07-25T10:38:27.842Z,5.60
2018-07-25T10:40:58.224Z,5.63
2018-07-25T10:43:28.765Z,5.63
2018-07-25T10:45:59.063Z,5.37
2018-07-25T10:48:29.698Z,5.17
2018-07-25T10:51:00.245Z,5.00
2018-07-25T10:53:30.857Z,5.37
2018-07-25T10:56:01.435Z,5.20
2018-07-25T10:58:31.801Z,5.37
2018-07-25T11:01:02.079Z,4.93
2018-07-25T11:03:32.760Z,5.17
2018-07-25T11:06:03.142Z,5.20
2018-07-25T11:08:33.506Z,5.13
2018-07-25T11:11:04.536Z,5.00
2018-07-25T11:13:35.046Z,5.10
2018-07-25T11:16:05.285Z,4.80
2018-07-25T11:18:35.933Z,4.47
2018-07-25T11:21:06.702Z,4.50
2018-07-25T11:23:36.980Z,4.33
2018-07-25T11:26:07.452Z,3.70
2018-07-25T11:28:38.462Z,3.60
2018-07-25T11:31:09.122Z,3.80
2018-07-25T11:33:39.719Z,4.23
2018-07-25T11:36:10.578Z,3.70
2018-07-25T11:38:41.025Z,4.17
2018-07-25T11:41:11.628Z,3.90
2018-07-25T11:43:42.545Z,3.87
2018-07-25T11:46:12.951Z,3.83
2018-07-25T11:48:43.377Z,4.23
2018-07-25T11:51:13.473Z,4.20
2018-07-25T11:53:44.028Z,4.17
2018-07-25T11:56:17.993Z,3.50
2018-07-25T11:58:48.556Z,3.60
2018-07-25T12:01:20.397Z,3.90
2018-07-25T12:03:51.144Z,3.80
2018-07-25T12:06:21.527Z,3.50
2018-07-25T12:08:52.437Z,3.93
2018-07-25T12:11:23.030Z,4.10
2018-07-25T12:13:53.585Z,4.37
2018-07-25T12:16:24.506Z,3.70
2018-07-25T12:18:55.080Z,3.90
2018-07-25T12:21:25.722Z,3.90
2018-07-25T12:23:56.438Z,4.20
2018-07-25T12:26:27.370Z,4.07
2018-07-25T12:28:57.830Z,4.40
2018-07-25T12:31:29.421Z,4.43
2018-07-25T12:33:59.949Z,4.37
2018-07-25T12:36:30.480Z,3.93
2018-07-25T12:39:00.882Z,3.93
2018-07-25T12:41:31.014Z,4.10
2018-07-25T12:44:01.326Z,4.20
2018-07-25T12:46:31.897Z,3.70
2018-07-25T12:49:02.322Z,3.87
2018-07-25T12:51:32.817Z,4.27
2018-07-25T12:54:03.889Z,4.10
2018-07-25T12:56:34.601Z,3.87
2018-07-25T12:59:04.766Z,4.20
2018-07-25T13:01:35.549Z,4.20
2018-07-25T13:04:06.340Z,4.50
2018-07-25T13:06:36.780Z,4.60
2018-07-25T13:09:10.900Z,4.50
2018-07-25T13:11:41.618Z,3.90
2018-07-25T13:14:11.788Z,4.20
2018-07-25T13:16:42.277Z,4.33
2018-07-25T13:19:12.629Z,4.07
2018-07-25T13:21:43.330Z,4.30
2018-07-25T13:24:13.953Z,4.00
2018-07-25T13:26:44.601Z,3.97
2018-07-25T13:29:15.225Z,3.80
2018-07-25T13:31:45.919Z,4.50
2018-07-25T13:34:16.525Z,4.13
2018-07-25T13:36:47.169Z,4.23
2018-07-25T13:39:17.632Z,4.00
2018-07-25T13:41:48.889Z,4.20
2018-07-25T13:44:19.424Z,4.37
2018-07-25T13:46:49.912Z,4.20
2018-07-25T13:49:20.300Z,4.13
2018-07-25T13:51:51.169Z,4.27
2018-07-25T13:54:23.795Z,4.93
2018-07-25T13:56:54.211Z,3.90
2018-07-25T13:59:24.895Z,4.30
2018-07-25T14:01:55.290Z,4.33
2018-07-25T14:04:25.791Z,4.30
2018-07-25T14:06:56.270Z,4.50
2018-07-25T14:09:27.088Z,4.50
2018-07-25T14:11:57.598Z,5.10
2018-07-25T14:14:27.911Z,4.30
2018-07-25T14:16:58.321Z,4.13
2018-07-25T14:19:29.265Z,3.83
2018-07-25T14:21:59.577Z,4.20
2018-07-25T14:24:29.886Z,4.00
2018-07-25T14:27:00.273Z,4.27
2018-07-25T14:29:30.947Z,4.30
2018-07-25T14:32:01.295Z,4.27
2018-07-25T14:34:31.722Z,4.50
2018-07-25T14:37:02.622Z,4.20
2018-07-25T14:39:33.277Z,4.67
2018-07-25T14:42:04.374Z,4.80
2018-07-25T14:44:35.285Z,4.50
2018-07-25T14:47:05.819Z,4.17
2018-07-25T14:49:36.409Z,4.30
2018-07-25T14:52:06.704Z,4.20
2018-07-25T14:54:37.370Z,4.20
2018-07-25T14:57:07.803Z,3.87
2018-07-25T14:59:38.672Z,4.00
2018-07-25T15:02:09.139Z,3.73
2018-07-25T15:04:39.922Z,4.50
2018-07-25T15:07:10.641Z,4.57
2018-07-25T15:09:44.226Z,4.57
2018-07-25T15:12:19.620Z,4.57
2018-07-25T15:14:49.970Z,4.87
2018-07-25T15:17:22.841Z,4.80
2018-07-25T15:19:53.233Z,4.57
2018-07-25T15:22:24.009Z,3.90
2018-07-25T15:24:54.381Z,4.50
2018-07-25T15:27:25.170Z,5.00
2018-07-25T15:29:56.045Z,4.80
2018-07-25T15:32:27.683Z,5.50
2018-07-25T15:34:58.357Z,5.10
2018-07-25T15:37:28.957Z,5.40
2018-07-25T15:39:59.485Z,5.60
2018-07-25T15:42:30.477Z,5.90
2018-07-25T15:45:01.049Z,6.00
2018-07-25T15:47:32.076Z,6.27
2018-07-25T15:50:02.718Z,6.40
2018-07-25T15:52:33.617Z,6.20
2018-07-25T15:55:04.160Z,6.17
2018-07-25T15:57:35.194Z,6.00
2018-07-25T16:00:07.735Z,6.40
2018-07-25T16:02:37.909Z,6.17
2018-07-25T16:05:08.673Z,5.80
2018-07-25T16:07:39.738Z,5.93
2018-07-25T16:10:10.285Z,6.00
2018-07-25T16:12:41.221Z,5.50
2018-07-25T16:15:11.596Z,6.10
2018-07-25T16:17:41.598Z,5.50
2018-07-25T16:20:12.348Z,5.80
2018-07-25T16:22:42.825Z,6.53
2018-07-25T16:25:13.367Z,6.53
2018-07-25T16:27:43.997Z,6.10
2018-07-25T16:30:14.650Z,6.20
2018-07-25T16:32:45.167Z,6.80
2018-07-25T16:35:15.553Z,6.90
2018-07-25T16:37:46.046Z,6.50
2018-07-25T16:40:17.120Z,7.10
2018-07-25T16:42:47.342Z,7.63
2018-07-25T16:45:17.880Z,7.40
2018-07-25T16:47:48.266Z,6.83
2018-07-25T16:50:19.160Z,7.70
2018-07-25T16:52:49.848Z,7.27
2018-07-25T16:55:20.909Z,6.97
2018-07-25T16:57:51.737Z,7.50
2018-07-25T17:00:22.173Z,7.50
2018-07-25T17:02:52.912Z,6.83
2018-07-25T17:05:24.053Z,6.73
2018-07-25T17:07:54.593Z,7.00
2018-07-25T17:10:25.473Z,7.40
2018-07-25T17:12:56.484Z,7.73
2018-07-25T17:15:27.347Z,8.80
2018-07-25T17:17:58.753Z,9.43
2018-07-25T17:20:29.785Z,9.13
2018-07-25T17:23:00.525Z,9.63
2018-07-25T17:25:31.234Z,8.70
2018-07-25T17:28:02.335Z,8.73
2018-07-25T17:30:32.885Z,10.33
2018-07-25T17:33:03.493Z,9.60
2018-07-25T17:35:34.092Z,10.77
2018-07-25T17:38:05.289Z,10.50
2018-07-25T17:40:36.490Z,10.63
2018-07-25T17:43:07.603Z,9.80
2018-07-25T17:45:38.214Z,11.30
2018-07-25T17:48:08.801Z,9.70
2018-07-25T17:50:39.301Z,10.23
2018-07-25T17:53:10.354Z,9.97
2018-07-25T17:55:41.641Z,10.20
2018-07-25T17:58:12.275Z,10.83
2018-07-25T18:00:43.006Z,9.80
2018-07-25T18:03:13.385Z,11.40
2018-07-25T18:05:45.209Z,12.27
2018-07-25T18:08:15.709Z,9.33
2018-07-25T18:10:46.661Z,10.20
2018-07-25T18:13:22.908Z,10.80
2018-07-25T18:15:53.528Z,9.67
2018-07-25T18:18:26.141Z,10.00
2018-07-25T18:20:56.732Z,10.40
2018-07-25T18:23:27.251Z,10.27
2018-07-25T18:25:57.803Z,9.50
2018-07-25T18:28:28.755Z,9.93
2018-07-25T18:30:59.345Z,9.30
2018-07-25T18:33:30.149Z,10.27
2018-07-25T18:36:00.714Z,10.27
2018-07-25T18:38:32.019Z,9.60
2018-07-25T18:41:02.821Z,10.23
2018-07-25T18:43:33.225Z,10.57
2018-07-25T18:46:04.014Z,9.80
2018-07-25T18:48:34.369Z,9.53
2018-07-25T18:51:04.681Z,9.27
2018-07-25T18:53:37.097Z,9.50
2018-07-25T18:56:07.988Z,10.73
2018-07-25T18:58:38.259Z,11.00
2018-07-25T19:01:08.955Z,8.90
2018-07-25T19:03:39.210Z,10.17
2018-07-25T19:06:09.984Z,9.20
2018-07-25T19:08:40.390Z,9.30
2018-07-25T19:11:11.357Z,9.90
2018-07-25T19:13:47.673Z,9.70
2018-07-25T19:16:18.257Z,9.70
2018-07-25T19:18:49.371Z,9.10
2018-07-25T19:21:20.229Z,8.30
2018-07-25T19:23:51.208Z,9.10
2018-07-25T19:26:22.319Z,9.10
2018-07-25T19:28:53.418Z,9.50
2018-07-25T19:31:25.292Z,10.80
2018-07-25T19:33:56.022Z,9.87
2018-07-25T19:36:26.673Z,10.27
2018-07-25T19:38:57.296Z,9.70
2018-07-25T19:41:28.033Z,10.93
2018-07-25T19:43:58.736Z,9.80
2018-07-25T19:46:30.647Z,7.60
2018-07-25T19:49:01.299Z,8.90
2018-07-25T19:51:32.287Z,8.83
2018-07-25T19:54:05.559Z,8.30
2018-07-25T19:56:36.266Z,8.97
2018-07-25T19:59:07.102Z,8.53
2018-07-25T20:01:37.778Z,8.80
2018-07-25T20:04:08.346Z,8.97
2018-07-25T20:06:38.937Z,9.90
2018-07-25T20:09:10.073Z,9.30
2018-07-25T20:11:40.769Z,7.87
2018-07-25T20:14:18.518Z,8.17
2018-07-25T20:16:49.294Z,8.07
2018-07-25T20:19:20.195Z,8.60
2018-07-25T20:21:51.036Z,8.13
2018-07-25T20:24:21.550Z,9.33
2018-07-25T20:26:52.238Z,8.23
2018-07-25T20:29:22.653Z,9.63
2018-07-25T20:31:53.533Z,9.90
2018-07-25T20:34:24.237Z,10.80
2018-07-25T20:36:54.794Z,9.83
2018-07-25T20:39:25.329Z,9.90
2018-07-25T20:41:55.926Z,9.50
2018-07-25T20:44:26.567Z,9.63
2018-07-25T20:46:57.188Z,8.70
2018-07-25T20:49:28.129Z,9.20
2018-07-25T20:51:58.783Z,10.70
2018-07-25T20:54:29.730Z,9.40
2018-07-25T20:57:00.528Z,11.87
2018-07-25T20:59:31.226Z,9.60
2018-07-25T21:02:01.604Z,9.90
2018-07-25T21:04:32.216Z,9.57
2018-07-25T21:07:03.012Z,9.50
2018-07-25T21:09:33.988Z,10.17
2018-07-25T21:12:04.341Z,9.50
2018-07-25T21:14:34.878Z,9.30
2018-07-25T21:17:05.294Z,9.37
2018-07-25T21:19:35.837Z,10.60
2018-07-25T21:22:06.705Z,9.50
2018-07-25T21:24:37.300Z,8.23
2018-07-25T21:27:07.858Z,9.17
2018-07-25T21:29:38.365Z,12.27
2018-07-25T21:32:09.332Z,10.63
2018-07-25T21:34:39.797Z,9.77
2018-07-25T21:37:10.330Z,8.50
2018-07-25T21:39:40.954Z,8.97
2018-07-25T21:42:11.777Z,10.27
2018-07-25T21:44:42.169Z,9.87
2018-07-25T21:47:12.657Z,10.20
2018-07-25T21:49:43.232Z,8.73
2018-07-25T21:52:13.735Z,8.90
2018-07-25T21:54:44.614Z,9.30
2018-07-25T21:57:15.644Z,10.57
2018-07-25T21:59:46.241Z,10.53
2018-07-25T22:02:16.645Z,11.10
2018-07-25T22:04:47.150Z,11.87
2018-07-25T22:07:17.993Z,11.73
2018-07-25T22:09:48.598Z,10.20
2018-07-25T22:12:19.040Z,11.00
2018-07-25T22:14:49.591Z,9.20
2018-07-25T22:17:20.523Z,8.30
2018-07-25T22:19:50.869Z,10.87
2018-07-25T22:22:21.093Z,9.70
2018-07-25T22:24:51.657Z,9.57
2018-07-25T22:27:22.137Z,10.50
2018-07-25T22:29:52.620Z,11.90
2018-07-25T22:32:23.829Z,10.63
2018-07-25T22:34:54.389Z,9.40
2018-07-25T22:37:24.734Z,9.70
2018-07-25T22:39:54.953Z,12.17
2018-07-25T22:42:25.984Z,11.10
2018-07-25T22:44:56.027Z,11.00
2018-07-25T22:47:26.329Z,10.37
2018-07-25T22:49:56.884Z,10.40
2018-07-25T22:52:27.347Z,9.97
2018-07-25T22:54:57.673Z,9.57
2018-07-25T22:57:29.460Z,12.60
2018-07-25T22:59:59.785Z,12.20
2018-07-25T23:02:30.277Z,12.10
2018-07-25T23:05:00.809Z,12.50
2018-07-25T23:07:31.738Z,11.23
2018-07-25T23:10:02.254Z,9.70
2018-07-25T23:12:32.589Z,9.40
2018-07-25T23:15:03.221Z,9.27
2018-07-25T23:17:33.798Z,8.60
2018-07-25T23:20:04.289Z,9.30
2018-07-25T23:22:45.763Z,8.83
2018-07-25T23:25:16.414Z,9.97
2018-07-25T23:27:46.869Z,10.00
2018-07-25T23:30:18.041Z,9.80
2018-07-25T23:32:49.333Z,10.03
2018-07-25T23:35:20.090Z,10.50
2018-07-25T23:37:51.235Z,8.37
2018-07-25T23:40:21.828Z,8.93
2018-07-25T23:42:52.020Z,11.00
2018-07-25T23:45:22.980Z,9.20
2018-07-25T23:47:53.499Z,11.17
2018-07-25T23:50:23.907Z,10.90
2018-07-25T23:52:54.717Z,9.30
2018-07-25T23:55:25.373Z,11.30
2018-07-25T23:57:55.771Z,10.70
